createdAt,value
2022-10-06T00:01:42.814Z,6.30
2022-10-06T00:04:10.824Z,10.90
2022-10-06T00:06:38.847Z,14.63
2022-10-06T00:09:06.785Z,8.05
2022-10-06T00:11:35.255Z,7.13
2022-10-06T00:14:03.261Z,9.80
2022-10-06T00:16:31.247Z,5.60
2022-10-06T00:19:00.513Z,12.52
2022-10-06T00:21:29.216Z,6.45
2022-10-06T00:23:57.108Z,8.60
2022-10-06T00:26:25.012Z,7.15
2022-10-06T00:28:52.962Z,8.35
2022-10-06T00:31:20.985Z,9.32
2022-10-06T00:33:50.868Z,8.70
2022-10-06T00:36:21.916Z,10.05
2022-10-06T00:38:50.856Z,11.57
2022-10-06T00:41:19.610Z,9.75
2022-10-06T00:43:51.049Z,6.47
2022-10-06T00:46:34.759Z,7.30
2022-10-06T00:49:13.035Z,9.57
2022-10-06T00:51:46.704Z,8.48
2022-10-06T00:54:15.932Z,8.57
2022-10-06T00:56:44.002Z,9.18
2022-10-06T00:59:13.971Z,7.53
2022-10-06T01:01:47.379Z,7.85
2022-10-06T01:04:18.541Z,5.78
2022-10-06T01:06:53.623Z,6.97
2022-10-06T01:09:23.580Z,8.38
2022-10-06T01:11:56.682Z,6.03
2022-10-06T01:14:26.270Z,5.95
2022-10-06T01:17:00.557Z,9.38
2022-10-06T01:19:43.197Z,6.68
2022-10-06T01:22:15.695Z,8.85
2022-10-06T01:24:50.604Z,6.35
2022-10-06T01:27:19.593Z,7.03
2022-10-06T01:29:48.333Z,5.55
2022-10-06T01:32:17.576Z,6.43
2022-10-06T01:34:45.564Z,6.85
2022-10-06T01:37:13.635Z,7.15
2022-10-06T01:39:42.923Z,7.15
2022-10-06T01:42:12.891Z,6.15
2022-10-06T01:44:41.010Z,6.55
2022-10-06T01:47:09.505Z,9.55
2022-10-06T01:49:37.658Z,10.35
2022-10-06T01:52:06.005Z,8.43
2022-10-06T01:54:34.047Z,5.47
2022-10-06T01:57:02.920Z,7.45
2022-10-06T01:59:32.695Z,6.00
2022-10-06T02:02:00.758Z,6.32
2022-10-06T02:04:29.273Z,6.88
2022-10-06T02:06:57.883Z,8.93
2022-10-06T02:09:26.048Z,7.85
2022-10-06T02:11:55.847Z,9.23
2022-10-06T02:14:25.240Z,8.85
2022-10-06T02:16:54.757Z,9.35
2022-10-06T02:19:23.559Z,6.32
2022-10-06T02:21:54.164Z,9.48
2022-10-06T02:24:22.352Z,5.97
2022-10-06T02:26:50.328Z,9.07
2022-10-06T02:29:18.356Z,6.50
2022-10-06T02:31:46.744Z,6.65
2022-10-06T02:34:16.991Z,6.07
2022-10-06T02:36:45.038Z,12.52
2022-10-06T02:39:13.519Z,9.77
2022-10-06T02:41:41.511Z,8.50
2022-10-06T02:44:09.726Z,7.50
2022-10-06T02:46:39.261Z,9.60
2022-10-06T02:49:07.508Z,8.85
2022-10-06T02:51:38.143Z,6.90
2022-10-06T02:54:06.267Z,9.88
2022-10-06T02:56:37.962Z,7.35
2022-10-06T02:59:05.946Z,9.77
2022-10-06T03:01:37.409Z,7.18
2022-10-06T03:04:12.036Z,9.40
2022-10-06T03:06:45.367Z,9.55
2022-10-06T03:09:19.363Z,8.63
2022-10-06T03:11:47.447Z,10.25
2022-10-06T03:14:28.442Z,8.13
2022-10-06T03:16:56.781Z,6.25
2022-10-06T03:19:27.704Z,7.10
2022-10-06T03:21:57.696Z,7.75
2022-10-06T03:24:34.836Z,6.50
2022-10-06T03:27:03.371Z,7.57
2022-10-06T03:29:31.642Z,7.53
2022-10-06T03:32:00.328Z,8.90
2022-10-06T03:34:29.539Z,9.55
2022-10-06T03:37:01.157Z,10.20
2022-10-06T03:39:30.020Z,12.07
2022-10-06T03:41:57.938Z,10.23
2022-10-06T03:44:27.381Z,6.28
2022-10-06T03:46:55.419Z,11.18
2022-10-06T03:49:23.623Z,6.30
2022-10-06T03:51:52.240Z,9.40
2022-10-06T03:54:25.785Z,6.32
2022-10-06T03:56:55.855Z,9.70
2022-10-06T03:59:23.882Z,5.90
2022-10-06T04:01:53.417Z,6.30
2022-10-06T04:04:32.953Z,6.03
2022-10-06T04:07:06.583Z,5.95
2022-10-06T04:09:36.658Z,5.35
2022-10-06T04:12:04.912Z,6.35
2022-10-06T04:14:35.392Z,8.32
2022-10-06T04:17:04.068Z,6.85
2022-10-06T04:19:35.478Z,7.35
2022-10-06T04:22:03.970Z,5.00
2022-10-06T04:24:32.913Z,4.50
2022-10-06T04:27:16.127Z,6.40
2022-10-06T04:29:49.046Z,4.50
2022-10-06T04:32:17.364Z,7.88
2022-10-06T04:34:45.320Z,5.93
2022-10-06T04:37:13.499Z,7.88
2022-10-06T04:39:43.141Z,7.50
2022-10-06T04:42:12.931Z,5.90
2022-10-06T04:44:41.018Z,5.55
2022-10-06T04:47:09.088Z,5.03
2022-10-06T04:49:37.206Z,2.65
2022-10-06T04:52:08.370Z,2.70
2022-10-06T04:54:39.042Z,5.35
2022-10-06T04:57:09.152Z,2.42
2022-10-06T05:00:12.463Z,5.10
2022-10-06T05:02:43.258Z,5.78
2022-10-06T05:05:11.304Z,5.28
2022-10-06T05:07:39.394Z,4.57
2022-10-06T05:10:07.855Z,5.40
2022-10-06T05:12:35.981Z,3.97
2022-10-06T05:15:07.308Z,1.63
2022-10-06T05:17:35.393Z,2.17
2022-10-06T05:20:07.580Z,1.05
2022-10-06T05:22:35.631Z,6.37
2022-10-06T05:25:04.434Z,2.22
2022-10-06T05:27:32.479Z,4.80
2022-10-06T05:30:00.545Z,4.00
2022-10-06T05:32:35.164Z,2.90
2022-10-06T05:35:04.538Z,2.95
2022-10-06T05:37:32.645Z,6.18
2022-10-06T05:40:03.056Z,8.48
2022-10-06T05:42:31.373Z,5.10
2022-10-06T05:45:00.730Z,5.93
2022-10-06T05:47:30.179Z,5.45
2022-10-06T05:49:58.438Z,7.50
2022-10-06T05:52:26.593Z,9.80
2022-10-06T05:54:54.876Z,2.45
2022-10-06T05:57:25.335Z,19.20
2022-10-06T05:59:53.557Z,9.35
2022-10-06T06:02:21.584Z,4.72
2022-10-06T06:04:53.086Z,5.18
2022-10-06T06:07:21.643Z,2.28
2022-10-06T06:09:50.268Z,5.68
2022-10-06T06:12:19.770Z,4.15
2022-10-06T06:15:11.275Z,4.70
2022-10-06T06:17:44.250Z,6.95
2022-10-06T06:20:14.903Z,7.18
2022-10-06T06:22:43.066Z,3.58
2022-10-06T06:25:12.926Z,5.95
2022-10-06T06:27:42.598Z,9.30
2022-10-06T06:30:12.172Z,8.77
2022-10-06T06:32:40.961Z,5.10
2022-10-06T06:35:10.379Z,4.75
2022-10-06T06:37:40.220Z,7.63
2022-10-06T06:40:09.329Z,7.13
2022-10-06T06:42:39.717Z,7.93
2022-10-06T06:45:35.964Z,8.27
2022-10-06T06:48:16.791Z,7.70
2022-10-06T06:50:46.839Z,5.57
2022-10-06T06:53:16.959Z,7.25
2022-10-06T06:55:51.161Z,7.45
2022-10-06T06:58:22.113Z,7.63
2022-10-06T07:00:51.532Z,9.20
2022-10-06T07:03:52.196Z,6.43
2022-10-06T07:06:12.454Z,11.70
2022-10-06T07:08:44.201Z,6.20
2022-10-06T07:11:15.460Z,7.78
2022-10-06T07:13:45.284Z,8.80
2022-10-06T07:16:32.404Z,8.57
2022-10-06T07:19:21.303Z,11.68
2022-10-06T07:22:12.054Z,8.80
2022-10-06T07:24:59.483Z,6.82
2022-10-06T07:27:28.226Z,5.13
2022-10-06T07:29:57.263Z,4.38
2022-10-06T07:32:26.952Z,10.43
2022-10-06T07:34:55.831Z,9.25
2022-10-06T07:37:27.028Z,8.35
2022-10-06T07:39:58.421Z,7.88
2022-10-06T07:42:26.462Z,7.15
2022-10-06T07:45:11.852Z,9.02
2022-10-06T07:47:41.655Z,5.18
2022-10-06T07:50:12.897Z,8.13
2022-10-06T07:52:40.932Z,8.50
2022-10-06T07:55:17.283Z,62.08
2022-10-06T07:58:07.011Z,14.15
2022-10-06T08:00:34.971Z,8.93
2022-10-06T08:03:03.069Z,9.35
2022-10-06T08:05:32.349Z,13.70
2022-10-06T08:08:00.406Z,10.35
2022-10-06T08:10:29.739Z,5.43
2022-10-06T08:12:57.692Z,9.10
2022-10-06T08:15:25.674Z,7.20
2022-10-06T08:17:54.411Z,25.77
2022-10-06T08:20:24.182Z,11.32
2022-10-06T08:22:52.202Z,5.05
2022-10-06T08:25:20.609Z,6.03
2022-10-06T08:27:53.443Z,8.75
2022-10-06T08:30:27.144Z,13.15
2022-10-06T08:32:55.259Z,6.28
2022-10-06T08:35:23.180Z,14.25
2022-10-06T08:37:52.240Z,9.30
2022-10-06T08:40:20.724Z,10.13
2022-10-06T08:42:53.109Z,11.13
2022-10-06T08:45:25.119Z,6.40
2022-10-06T08:48:02.511Z,8.70
2022-10-06T08:50:33.675Z,14.95
2022-10-06T08:53:15.484Z,6.70
2022-10-06T08:55:49.775Z,12.30
2022-10-06T08:58:34.854Z,8.48
2022-10-06T09:01:15.469Z,12.52
2022-10-06T09:03:48.397Z,11.57
2022-10-06T09:06:27.243Z,10.73
2022-10-06T09:08:59.280Z,10.63
2022-10-06T09:11:47.148Z,8.93
2022-10-06T09:14:26.895Z,12.52
2022-10-06T09:17:00.738Z,12.43
2022-10-06T09:19:37.991Z,11.63
2022-10-06T09:22:07.916Z,19.10
2022-10-06T09:24:46.978Z,7.57
2022-10-06T09:27:19.423Z,6.93
2022-10-06T09:29:49.970Z,10.13
2022-10-06T09:32:19.646Z,15.75
2022-10-06T09:34:51.073Z,12.70
2022-10-06T09:37:19.604Z,8.95
2022-10-06T09:39:49.522Z,14.18
2022-10-06T09:42:22.740Z,12.18
2022-10-06T09:45:00.420Z,9.20
2022-10-06T09:47:44.743Z,13.95
2022-10-06T09:50:22.235Z,14.75
2022-10-06T09:53:13.879Z,16.58
2022-10-06T09:55:52.053Z,10.93
2022-10-06T09:58:26.525Z,12.60
2022-10-06T10:01:00.114Z,11.73
2022-10-06T10:03:51.486Z,11.48
2022-10-06T10:06:31.898Z,14.52
2022-10-06T10:09:30.889Z,11.18
2022-10-06T10:12:27.943Z,13.65
2022-10-06T10:15:02.555Z,11.18
2022-10-06T10:17:40.659Z,10.82
2022-10-06T10:20:30.084Z,9.70
2022-10-06T10:23:01.174Z,11.35
2022-10-06T10:26:13.850Z,10.18
2022-10-06T10:29:10.762Z,7.55
2022-10-06T10:31:49.665Z,10.43
2022-10-06T10:34:43.524Z,10.98
2022-10-06T10:37:15.888Z,6.82
2022-10-06T10:39:49.402Z,7.22
2022-10-06T10:42:22.545Z,17.40
2022-10-06T10:44:56.201Z,10.63
2022-10-06T10:47:29.426Z,8.27
2022-10-06T10:50:07.410Z,12.45
2022-10-06T10:52:41.382Z,16.65
2022-10-06T10:55:21.819Z,8.30
2022-10-06T10:57:52.961Z,10.57
2022-10-06T11:00:25.196Z,10.93
2022-10-06T11:02:56.186Z,8.73
2022-10-06T11:05:37.616Z,8.73
2022-10-06T11:08:12.086Z,8.35
2022-10-06T11:10:47.778Z,8.43
2022-10-06T11:13:24.179Z,9.77
2022-10-06T11:16:06.618Z,8.75
2022-10-06T11:18:49.042Z,9.50
2022-10-06T11:21:24.422Z,10.80
2022-10-06T11:23:56.612Z,10.90
2022-10-06T11:26:43.835Z,8.52
2022-10-06T11:29:25.760Z,10.35
2022-10-06T11:32:04.798Z,5.20
2022-10-06T11:34:32.862Z,11.07
2022-10-06T11:37:13.431Z,9.82
2022-10-06T11:39:52.207Z,9.40
2022-10-06T11:42:26.632Z,7.13
2022-10-06T11:45:00.939Z,9.68
2022-10-06T11:47:35.853Z,10.68
2022-10-06T11:50:33.110Z,11.88
2022-10-06T11:53:02.628Z,10.75
2022-10-06T11:55:31.262Z,11.50
2022-10-06T12:01:02.130Z,7.82
2022-10-06T12:04:03.743Z,13.85
2022-10-06T12:07:00.156Z,11.02
2022-10-06T12:09:39.918Z,12.27
2022-10-06T12:12:43.049Z,12.98
2022-10-06T12:18:45.070Z,14.80
2022-10-06T12:21:27.659Z,13.60
2022-10-06T12:24:03.969Z,10.23
2022-10-06T12:26:58.407Z,14.38
2022-10-06T12:29:39.242Z,10.80
2022-10-06T12:34:59.365Z,10.32
2022-10-06T12:37:50.147Z,9.80
2022-10-06T12:40:50.912Z,9.00
2022-10-06T12:43:35.023Z,6.50
2022-10-06T12:46:04.984Z,12.93
2022-10-06T12:48:41.439Z,9.85
2022-10-06T12:51:23.399Z,6.72
2022-10-06T12:53:58.759Z,10.52
2022-10-06T12:56:31.523Z,8.40
2022-10-06T12:59:19.854Z,11.15
2022-10-06T13:01:50.154Z,8.18
2022-10-06T13:04:35.974Z,7.60
2022-10-06T13:07:14.732Z,5.45
2022-10-06T13:09:43.087Z,8.00
2022-10-06T13:12:26.223Z,9.20
2022-10-06T13:15:19.246Z,8.35
2022-10-06T13:17:51.360Z,10.63
2022-10-06T13:20:22.649Z,10.75
2022-10-06T13:22:57.767Z,9.63
2022-10-06T13:25:26.083Z,12.73
2022-10-06T13:27:56.187Z,10.60
2022-10-06T13:30:26.108Z,11.38
2022-10-06T13:32:55.653Z,9.82
2022-10-06T13:35:26.815Z,11.43
2022-10-06T13:37:55.924Z,9.27
2022-10-06T13:40:43.999Z,11.50
2022-10-06T13:43:19.046Z,14.40
2022-10-06T13:45:49.626Z,9.20
2022-10-06T13:48:21.147Z,10.82
2022-10-06T13:50:50.231Z,7.20
2022-10-06T13:53:31.454Z,11.20
2022-10-06T13:56:00.086Z,12.00
2022-10-06T13:58:30.010Z,7.40
2022-10-06T14:01:01.105Z,11.25
2022-10-06T14:03:33.799Z,9.40
2022-10-06T14:06:08.149Z,11.90
2022-10-06T14:08:37.156Z,7.93
2022-10-06T14:11:08.041Z,13.07
2022-10-06T14:13:44.444Z,8.85
2022-10-06T14:16:21.937Z,14.07
2022-10-06T14:21:34.815Z,14.73
2022-10-06T14:24:07.501Z,9.15
2022-10-06T14:26:38.435Z,8.02
2022-10-06T14:29:06.509Z,8.02
2022-10-06T14:31:36.380Z,10.65
2022-10-06T14:34:05.570Z,12.27
2022-10-06T14:36:35.736Z,12.82
2022-10-06T14:39:07.486Z,11.27
2022-10-06T14:41:35.788Z,8.15
2022-10-06T14:44:08.883Z,9.38
2022-10-06T14:46:43.945Z,11.07
2022-10-06T14:49:14.070Z,12.02
2022-10-06T14:51:44.794Z,8.90
2022-10-06T14:54:13.587Z,8.50
2022-10-06T14:56:42.903Z,11.10
2022-10-06T14:59:16.981Z,9.98
2022-10-06T15:01:47.907Z,9.57
2022-10-06T15:04:17.122Z,8.70
2022-10-06T15:07:02.754Z,9.20
2022-10-06T15:09:31.394Z,9.85
2022-10-06T15:11:59.765Z,8.50
2022-10-06T15:14:28.435Z,10.75
2022-10-06T15:17:00.196Z,8.57
2022-10-06T15:19:28.556Z,10.53
2022-10-06T15:21:56.862Z,10.02
2022-10-06T15:24:25.042Z,7.72
2022-10-06T15:27:10.626Z,15.07
2022-10-06T15:29:38.877Z,10.02
2022-10-06T15:32:09.461Z,10.18
2022-10-06T15:34:38.110Z,9.40
2022-10-06T15:37:08.581Z,14.13
2022-10-06T15:39:38.011Z,13.88
2022-10-06T15:42:07.971Z,12.52
2022-10-06T15:44:36.857Z,10.27
2022-10-06T15:47:07.163Z,13.02
2022-10-06T15:49:40.541Z,10.82
2022-10-06T15:52:09.897Z,12.85
2022-10-06T15:54:39.807Z,14.35
2022-10-06T15:57:09.792Z,15.02
2022-10-06T15:59:40.062Z,12.10
2022-10-06T16:02:14.703Z,9.02
2022-10-06T16:04:57.359Z,15.82
2022-10-06T16:07:31.553Z,10.98
2022-10-06T16:10:00.015Z,11.85
2022-10-06T16:12:30.536Z,9.27
2022-10-06T16:15:01.464Z,14.70
2022-10-06T16:17:29.601Z,16.42
2022-10-06T16:19:59.421Z,9.75
2022-10-06T16:22:27.631Z,10.93
2022-10-06T16:24:55.707Z,10.70
2022-10-06T16:27:23.949Z,10.82
2022-10-06T16:29:52.628Z,10.85
2022-10-06T16:32:21.025Z,11.60
2022-10-06T16:34:50.756Z,10.65
2022-10-06T16:37:20.414Z,11.93
2022-10-06T16:39:48.486Z,7.82
2022-10-06T16:42:17.976Z,11.10
2022-10-06T16:44:45.991Z,15.35
2022-10-06T16:47:14.276Z,9.43
2022-10-06T16:49:42.351Z,16.05
2022-10-06T16:52:10.813Z,10.70
2022-10-06T16:54:40.365Z,11.20
2022-10-06T16:57:08.348Z,11.95
2022-10-06T16:59:36.373Z,17.25
2022-10-06T17:02:04.815Z,12.00
2022-10-06T17:04:34.447Z,11.20
2022-10-06T17:07:02.561Z,10.93
2022-10-06T17:09:31.064Z,15.68
2022-10-06T17:12:03.295Z,12.63
2022-10-06T17:14:34.778Z,15.50
2022-10-06T17:17:03.125Z,13.82
2022-10-06T17:19:33.258Z,12.98
2022-10-06T17:22:01.260Z,14.07
2022-10-06T17:24:31.456Z,17.45
2022-10-06T17:27:01.161Z,20.55
2022-10-06T17:29:29.437Z,19.30
2022-10-06T17:32:00.462Z,19.70
2022-10-06T17:34:32.790Z,22.08
2022-10-06T17:37:02.032Z,18.90
2022-10-06T17:39:30.393Z,21.35
2022-10-06T17:42:01.978Z,24.90
2022-10-06T17:44:31.794Z,21.23
2022-10-06T17:47:01.366Z,25.98
2022-10-06T17:49:34.749Z,27.15
2022-10-06T17:52:03.206Z,26.70
2022-10-06T17:54:31.817Z,24.75
2022-10-06T17:57:01.595Z,24.58
2022-10-06T17:59:31.693Z,28.35
2022-10-06T18:02:03.680Z,22.65
2022-10-06T18:04:31.941Z,25.27
2022-10-06T18:07:00.513Z,20.58
2022-10-06T18:09:29.493Z,27.92
2022-10-06T18:11:58.498Z,25.40
2022-10-06T18:14:32.330Z,28.60
2022-10-06T18:17:02.322Z,18.50
2022-10-06T18:19:32.529Z,17.70
2022-10-06T18:22:03.011Z,19.90
2022-10-06T18:24:32.704Z,19.77
2022-10-06T18:27:02.460Z,23.65
2022-10-06T18:29:34.129Z,17.65
2022-10-06T18:33:07.553Z,22.67
2022-10-06T18:37:39.723Z,24.35
2022-10-06T18:40:11.709Z,18.10
2022-10-06T18:42:40.154Z,19.45
2022-10-06T18:45:29.424Z,18.42
2022-10-06T18:48:15.083Z,20.52
2022-10-06T18:50:43.339Z,19.40
2022-10-06T18:53:11.487Z,18.83
2022-10-06T18:55:39.806Z,30.88
2022-10-06T18:58:08.380Z,24.70
2022-10-06T19:00:39.914Z,19.85
2022-10-06T19:03:10.970Z,22.00
2022-10-06T19:05:39.271Z,27.00
2022-10-06T19:08:09.354Z,24.55
2022-10-06T19:10:57.680Z,20.55
2022-10-06T19:13:25.857Z,24.15
2022-10-06T19:15:55.620Z,18.70
2022-10-06T19:18:23.741Z,27.77
2022-10-06T19:20:52.269Z,23.30
2022-10-06T19:23:20.522Z,22.50
2022-10-06T19:25:49.895Z,25.52
2022-10-06T19:28:18.159Z,21.77
2022-10-06T19:30:47.193Z,21.05
2022-10-06T19:33:16.928Z,19.27
2022-10-06T19:35:52.342Z,17.98
2022-10-06T19:38:20.699Z,22.25
2022-10-06T19:40:48.811Z,21.55
2022-10-06T19:43:17.158Z,21.70
2022-10-06T19:45:45.491Z,19.88
2022-10-06T19:48:13.503Z,18.88
2022-10-06T19:50:43.041Z,18.80
2022-10-06T19:53:14.967Z,27.98
2022-10-06T19:55:46.288Z,19.73
2022-10-06T19:58:14.279Z,21.83
2022-10-06T20:00:43.355Z,25.48
2022-10-06T20:03:11.963Z,21.35
2022-10-06T20:05:40.381Z,22.27
2022-10-06T20:08:10.002Z,21.15
2022-10-06T20:10:38.431Z,18.27
2022-10-06T20:13:07.005Z,19.73
2022-10-06T20:15:36.076Z,20.80
2022-10-06T20:18:04.577Z,19.67
2022-10-06T20:20:35.247Z,21.05
2022-10-06T20:23:03.294Z,22.98
2022-10-06T20:25:34.252Z,20.25
2022-10-06T20:28:05.544Z,15.10
2022-10-06T20:30:37.336Z,19.48
2022-10-06T20:33:07.508Z,18.45
2022-10-06T20:35:35.757Z,20.40
2022-10-06T20:38:08.864Z,18.35
2022-10-06T20:40:47.458Z,15.95
2022-10-06T20:43:15.639Z,12.70
2022-10-06T20:45:43.823Z,19.90
2022-10-06T20:48:14.481Z,17.55
2022-10-06T20:50:43.373Z,19.58
2022-10-06T20:53:12.322Z,16.15
2022-10-06T20:55:40.401Z,19.10
2022-10-06T20:58:09.696Z,18.15
2022-10-06T21:00:37.672Z,15.57
2022-10-06T21:03:05.820Z,19.75
2022-10-06T21:05:34.113Z,16.45
2022-10-06T21:08:02.125Z,17.63
2022-10-06T21:10:30.266Z,15.70
2022-10-06T21:12:58.284Z,18.42
2022-10-06T21:15:27.752Z,19.00
2022-10-06T21:17:56.058Z,16.30
2022-10-06T21:20:24.061Z,20.27
2022-10-06T21:22:52.744Z,15.23
2022-10-06T21:25:20.827Z,14.15
2022-10-06T21:27:49.018Z,16.02
2022-10-06T21:30:17.362Z,22.58
2022-10-06T21:32:46.723Z,25.48
2022-10-06T21:35:14.881Z,17.73
2022-10-06T21:37:43.216Z,22.67
2022-10-06T21:40:11.720Z,23.38
2022-10-06T21:42:39.729Z,22.25
2022-10-06T21:45:10.561Z,19.30
2022-10-06T21:47:38.918Z,25.67
2022-10-06T21:50:09.327Z,17.15
2022-10-06T21:52:37.365Z,16.48
2022-10-06T21:55:08.600Z,23.73
2022-10-06T21:57:36.549Z,18.27
2022-10-06T22:00:06.219Z,17.73
2022-10-06T22:02:40.950Z,20.25
2022-10-06T22:05:10.756Z,17.98
2022-10-06T22:07:38.969Z,24.83
2022-10-06T22:10:07.881Z,36.83
2022-10-06T22:12:35.862Z,20.40
2022-10-06T22:15:04.294Z,14.57
2022-10-06T22:17:32.315Z,18.77
2022-10-06T22:20:00.442Z,16.30
2022-10-06T22:22:29.889Z,16.77
2022-10-06T22:24:59.257Z,17.42
2022-10-06T22:27:27.374Z,18.77
2022-10-06T22:29:55.404Z,16.63
2022-10-06T22:32:24.090Z,20.13
2022-10-06T22:34:52.155Z,16.58
2022-10-06T22:37:20.230Z,15.40
2022-10-06T22:39:49.662Z,15.38
2022-10-06T22:42:17.642Z,19.08
2022-10-06T22:44:45.868Z,16.35
2022-10-06T22:47:14.241Z,16.00
2022-10-06T22:49:42.182Z,19.27
2022-10-06T22:52:10.232Z,18.02
2022-10-06T22:54:38.203Z,15.05
2022-10-06T22:57:10.648Z,19.75
2022-10-06T22:59:41.040Z,14.73
2022-10-06T23:02:09.156Z,14.90
2022-10-06T23:04:37.230Z,17.23
2022-10-06T23:07:05.303Z,15.20
2022-10-06T23:09:36.648Z,14.90
2022-10-06T23:12:04.816Z,16.50
2022-10-06T23:14:36.598Z,17.77
2022-10-06T23:17:07.767Z,16.75
2022-10-06T23:19:35.881Z,15.63
2022-10-06T23:22:03.871Z,15.63
2022-10-06T23:24:31.922Z,16.38
2022-10-06T23:27:04.248Z,17.17
2022-10-06T23:29:32.376Z,15.45
2022-10-06T23:32:04.249Z,14.15
2022-10-06T23:34:32.224Z,19.27
2022-10-06T23:37:00.309Z,15.55
2022-10-06T23:39:28.568Z,19.80
2022-10-06T23:41:56.721Z,22.58
2022-10-06T23:44:24.977Z,15.98
2022-10-06T23:46:53.014Z,24.02
2022-10-06T23:49:22.391Z,22.95
2022-10-06T23:51:50.356Z,20.98
2022-10-06T23:54:18.429Z,20.73
2022-10-06T23:56:51.310Z,21.95
2022-10-06T23:59:19.301Z,18.17
